Time;durP1;ratioP1;P1;durP2;ratioP2;P2;SDS_P1;SDS_P2;PMS_P1;PMS_P2;Temp;Humidity;BMP_temperature;BMP_pressure;BME280_temperature;BME280_humidity;BME280_pressure;Samples;Min_cycle;Max_cycle;Signal;HPM_P1;HPM_P2
2022/02/05 00:01:20;;;;;;;23.60;8.65;;;;;;;0.78;73.01;101354.72;1809946;78;21102;-60
2022/02/05 00:03:45;;;;;;;16.20;8.18;;;;;;;0.74;72.94;101358.56;1794258;79;21099;-60
2022/02/05 00:06:15;;;;;;;18.77;8.73;;;;;;;0.73;73.02;101358.11;1779088;79;21115;-60
2022/02/05 00:08:57;;;;;;;23.02;9.28;;;;;;;0.71;73.08;101365.00;1793388;79;21557;-60
2022/02/05 00:11:49;;;;;;;20.52;8.90;;;;;;;0.70;73.17;101363.68;1794461;79;21087;-59
2022/02/05 00:39:05;;;;;;;15.95;7.22;;;;;;;0.73;73.20;101371.50;1775704;80;21051;-60
2022/02/05 00:41:33;;;;;;;20.45;8.95;;;;;;;0.76;73.18;101368.95;1774684;81;21078;-60
2022/02/05 00:43:58;;;;;;;20.20;8.73;;;;;;;0.76;73.15;101367.22;1774194;81;21103;-59
2022/02/05 00:46:29;;;;;;;15.72;7.30;;;;;;;0.79;73.08;101370.70;1775766;80;21039;-59
2022/02/05 00:48:56;;;;;;;19.70;7.70;;;;;;;0.76;73.12;101365.93;1774523;81;21074;-60
2022/02/05 00:51:31;;;;;;;16.77;8.20;;;;;;;0.73;73.09;101368.47;1774863;81;21156;-60
2022/02/05 00:54:12;;;;;;;19.65;8.93;;;;;;;0.73;73.10;101362.00;1774612;81;21103;-60
2022/02/05 00:59:17;;;;;;;21.62;8.98;;;;;;;0.76;73.13;101364.63;1774534;81;21068;-60
2022/02/05 01:01:47;;;;;;;17.67;8.15;;;;;;;0.79;73.09;101372.00;1809454;78;21093;-61
2022/02/05 01:04:16;;;;;;;12.07;6.05;;;;;;;0.77;73.14;101370.67;1833011;78;21124;-60
2022/02/05 01:06:46;;;;;;;13.48;6.55;;;;;;;0.76;73.12;101371.11;1832923;78;21112;-61
2022/02/05 01:09:21;;;;;;;17.37;8.30;;;;;;;0.76;73.13;101375.00;1833040;78;21058;-60
2022/02/05 01:11:46;;;;;;;18.70;8.68;;;;;;;0.71;72.91;101385.73;1829758;78;21042;-60
2022/02/05 01:14:19;;;;;;;21.55;7.95;;;;;;;0.73;73.01;101390.52;1832862;78;21535;-61
2022/02/05 01:17:03;;;;;;;18.23;8.30;;;;;;;0.76;72.93;101394.45;1832877;78;21117;-61
2022/02/05 01:21:58;;;;;;;18.05;8.65;;;;;;;0.80;72.91;101400.97;1832927;78;21073;-59
2022/02/05 01:24:26;;;;;;;18.42;7.78;;;;;;;0.76;72.83;101406.11;1832909;78;21089;-61
2022/02/05 01:27:10;;;;;;;17.45;7.87;;;;;;;0.76;72.90;101407.41;1831336;78;21469;-60
2022/02/05 01:32:14;;;;;;;17.40;7.70;;;;;;;0.75;72.67;101411.27;1832894;78;21085;-59
2022/02/05 01:54:14;;;;;;;17.85;8.00;;;;;;;0.64;73.05;101417.61;1832946;78;21081;-60
2022/02/05 01:59:18;;;;;;;16.62;8.03;;;;;;;0.66;72.92;101419.80;1829754;78;21030;-60
2022/02/05 02:09:33;;;;;;;17.67;7.22;;;;;;;0.68;72.82;101437.56;1832825;78;21148;-60
2022/02/05 02:10:14;;;;;;;19.87;7.22;;;;;;;0.64;72.98;101438.34;1793062;79;21042;-60
2022/02/05 02:12:38;;;;;;;6.63;3.70;;;;;;;0.66;72.96;101440.53;1794383;80;21045;-60
2022/02/05 02:15:06;;;;;;;19.05;8.55;;;;;;;0.65;72.97;101441.40;1795289;79;21041;-59
2022/02/05 02:18:12;;;;;;;15.65;7.40;;;;;;;0.66;72.93;101443.13;1795765;79;21097;-59
2022/02/05 02:23:28;;;;;;;18.82;9.03;;;;;;;0.72;72.85;101455.29;1832867;78;21025;-60
2022/02/05 02:26:03;;;;;;;23.47;8.45;;;;;;;0.71;72.84;101450.98;1831693;78;21222;-61
2022/02/05 02:28:28;;;;;;;18.17;8.50;;;;;;;0.73;72.81;101455.31;1830182;78;21058;-60
2022/02/05 02:30:57;;;;;;;18.90;7.83;;;;;;;0.74;72.74;101459.66;1799925;78;21163;-61
2022/02/05 02:33:30;;;;;;;21.60;8.33;;;;;;;0.76;72.73;101464.44;1797015;79;21078;-62
2022/02/05 02:35:51;;;;;;;14.87;7.08;;;;;;;0.79;72.75;101464.03;1799824;78;21227;-61
2022/02/05 02:38:23;;;;;;;16.70;8.13;;;;;;;0.82;72.66;101465.38;1832890;78;21143;-61
2022/02/05 02:43:28;;;;;;;19.67;8.73;;;;;;;0.82;72.64;101465.38;1832839;78;21062;-59
2022/02/05 02:45:56;;;;;;;16.32;7.90;;;;;;;0.78;72.71;101470.09;1832745;78;21139;-62
2022/02/05 02:48:26;;;;;;;15.15;6.75;;;;;;;0.76;72.73;101464.44;1798611;78;21180;-60
2022/02/05 02:56:58;;;;;;;17.52;9.35;;;;;;;0.79;72.72;101484.34;1796900;80;21062;-61
2022/02/05 02:59:27;;;;;;;19.20;8.20;;;;;;;0.78;72.74;101480.45;1796504;80;21077;-60
2022/02/05 03:01:58;;;;;;;15.93;8.23;;;;;;;0.80;72.70;101486.52;1796739;78;21070;-60
2022/02/05 03:04:21;;;;;;;17.62;8.28;;;;;;;0.78;72.58;101484.34;1785152;80;21101;-60
2022/02/05 03:06:50;;;;;;;16.27;8.33;;;;;;;0.73;72.56;101480.38;1785435;80;21129;-60
2022/02/05 03:09:19;;;;;;;19.07;8.90;;;;;;;0.69;72.68;101482.05;1786510;79;21057;-60
2022/02/05 03:11:48;;;;;;;19.50;7.78;;;;;;;0.68;72.57;101478.14;1785343;80;21446;-60
2022/02/05 03:14:16;;;;;;;11.00;6.25;;;;;;;0.66;72.63;101482.00;1785315;80;21492;-59
2022/02/05 03:16:49;;;;;;;9.88;5.10;;;;;;;0.61;72.63;101490.56;1785297;80;21093;-59
2022/02/05 03:19:16;;;;;;;11.95;6.70;;;;;;;0.53;72.37;101498.24;1786384;79;21493;-60
2022/02/05 03:21:45;;;;;;;14.38;7.03;;;;;;;0.52;72.51;101488.74;1785295;80;21521;-61
2022/02/05 03:24:14;;;;;;;15.72;6.78;;;;;;;0.46;72.58;101499.89;1785317;80;21567;-59
2022/02/05 03:26:43;;;;;;;16.10;7.87;;;;;;;0.42;72.71;101503.26;1785307;80;21090;-60
2022/02/05 03:29:13;;;;;;;13.68;7.05;;;;;;;0.42;72.85;101507.14;1786503;79;21585;-59
2022/02/05 03:31:41;;;;;;;12.13;6.42;;;;;;;0.44;72.83;101513.66;1785345;80;21129;-59
2022/02/05 03:34:10;;;;;;;12.75;5.20;;;;;;;0.45;72.79;101507.64;1785279;80;21211;-59
2022/02/05 03:36:40;;;;;;;18.92;7.10;;;;;;;0.45;72.76;101512.81;1785314;80;21567;-60
2022/02/05 03:39:10;;;;;;;14.98;6.28;;;;;;;0.43;72.71;101517.11;1785484;79;21069;-60
2022/02/05 03:41:39;;;;;;;16.73;7.28;;;;;;;0.37;72.72;101516.16;1785721;79;21547;-59
2022/02/05 03:44:07;;;;;;;19.23;8.35;;;;;;;0.35;72.83;101522.15;1785273;80;21082;-59
2022/02/05 03:46:37;;;;;;;12.35;5.15;;;;;;;0.35;72.82;101520.45;1788604;79;21050;-59
2022/02/05 03:49:06;;;;;;;12.23;6.50;;;;;;;0.33;72.72;101513.09;1804218;78;21543;-58
2022/02/05 03:51:34;;;;;;;14.55;5.90;;;;;;;0.32;72.62;101515.22;1803916;79;21179;-58
2022/02/05 03:54:03;;;;;;;16.60;6.42;;;;;;;0.29;72.45;101515.16;1804002;79;21062;-58
2022/02/05 03:56:32;;;;;;;13.50;6.35;;;;;;;0.28;72.40;101523.80;1803605;79;21481;-60
2022/02/05 03:59:01;;;;;;;18.05;7.53;;;;;;;0.29;72.34;101525.52;1803424;79;21081;-62
2022/02/05 04:01:30;;;;;;;6.33;3.37;;;;;;;0.27;72.34;101531.09;1795130;79;21150;-61
2022/02/05 04:03:59;;;;;;;32.55;12.05;;;;;;;0.24;72.38;101531.47;1792984;79;21586;-63
2022/02/05 04:06:28;;;;;;;8.60;4.55;;;;;;;0.23;72.31;101538.37;1787435;80;21076;-62
2022/02/05 04:09:01;;;;;;;11.08;5.53;;;;;;;0.20;72.34;101525.37;1774533;81;21507;-61
2022/02/05 04:17:00;;;;;;;11.85;5.95;;;;;;;0.18;72.16;101539.62;1774480;81;21068;-62
2022/02/05 04:19:29;;;;;;;8.28;3.92;;;;;;;0.22;72.08;101549.58;1783618;80;21468;-61
2022/02/05 04:21:58;;;;;;;11.45;5.20;;;;;;;0.25;71.90;101554.81;1790650;79;21194;-62
2022/02/05 04:24:27;;;;;;;12.03;5.33;;;;;;;0.26;71.79;101555.67;1790952;80;21151;-62
2022/02/05 04:26:55;;;;;;;14.00;5.50;;;;;;;0.26;71.77;101555.67;1790770;80;21081;-62
2022/02/05 04:29:24;;;;;;;9.13;5.12;;;;;;;0.23;71.62;101565.58;1790841;79;21519;-65
2022/02/05 04:31:53;;;;;;;10.43;4.42;;;;;;;0.23;71.61;101568.59;1790781;80;21089;-62
2022/02/05 04:34:22;;;;;;;11.48;4.53;;;;;;;0.23;71.54;101569.46;1790680;80;21089;-62
2022/02/05 04:36:50;;;;;;;11.35;5.35;;;;;;;0.24;71.56;101576.41;1790775;80;21131;-62
2022/02/05 04:39:21;;;;;;;12.35;5.47;;;;;;;0.20;71.46;101574.58;1790785;80;21558;-64
2022/02/05 04:42:04;;;;;;;13.10;6.00;;;;;;;0.17;71.44;101578.44;1790785;80;21085;-65
2022/02/05 04:44:47;;;;;;;11.05;4.58;;;;;;;0.16;71.43;101579.27;1791228;79;21073;-65
2022/02/05 04:52:36;;;;;;;11.90;5.45;;;;;;;0.05;71.44;101588.57;1746764;82;21084;-62
2022/02/05 04:55:03;;;;;;;13.65;6.15;;;;;;;0.02;71.54;101590.70;1747188;82;21091;-61
2022/02/05 05:00:08;;;;;;;10.50;5.08;;;;;;;-0.01;71.11;101594.08;1746647;82;21514;-62
2022/02/05 05:05:19;;;;;;;11.08;4.87;;;;;;;-0.04;70.62;101595.34;1746542;82;21084;-62
2022/02/05 05:13:06;;;;;;;17.98;6.80;;;;;;;-0.06;70.57;101603.48;1746291;82;21142;-62
2022/02/05 05:19:12;;;;;;;12.85;4.55;;;;;;;-0.03;70.60;101607.42;1746641;82;21069;-61
2022/02/05 05:20:58;;;;;;;11.12;4.85;;;;;;;0.01;70.60;101611.38;1746702;82;21072;-60
2022/02/05 05:23:27;;;;;;;6.95;4.50;;;;;;;0.01;70.65;101620.44;1746583;82;21487;-60
2022/02/05 05:25:55;;;;;;;6.87;4.03;;;;;;;0.02;70.55;101619.17;1782456;79;21078;-63
2022/02/05 05:28:24;;;;;;;18.15;8.58;;;;;;;0.02;70.46;101623.46;1746533;82;21153;-59
2022/02/05 05:30:53;;;;;;;14.18;4.72;;;;;;;0.04;70.45;101625.66;1761711;81;21160;-58
2022/02/05 05:33:22;;;;;;;8.20;4.20;;;;;;;0.06;70.35;101634.35;1771001;81;21091;-58
2022/02/05 05:35:50;;;;;;;8.78;3.95;;;;;;;0.07;70.24;101636.08;1770953;81;21458;-58
2022/02/05 05:38:19;;;;;;;8.65;4.37;;;;;;;0.12;70.07;101650.86;1770990;81;21514;-58
2022/02/05 05:40:48;;;;;;;9.35;4.75;;;;;;;0.19;70.02;101647.97;1771005;81;21082;-58
2022/02/05 05:43:32;;;;;;;12.25;5.10;;;;;;;0.25;70.01;101650.66;1770350;81;21076;-60
2022/02/05 05:48:42;;;;;;;15.08;6.40;;;;;;;0.49;69.81;101643.73;1769624;79;21152;-59
2022/02/05 05:50:59;;;;;;;14.60;5.97;;;;;;;0.61;69.71;101643.09;1769230;81;21042;-59
2022/02/05 05:53:29;;;;;;;9.00;4.60;;;;;;;0.67;69.45;101648.36;1769569;81;21080;-59
2022/02/05 05:56:01;;;;;;;12.23;4.70;;;;;;;0.69;69.28;101647.95;1769684;81;21135;-59
2022/02/05 05:58:29;;;;;;;10.63;4.67;;;;;;;0.69;69.17;101647.09;1769756;81;21089;-60
2022/02/05 06:00:58;;;;;;;30.10;13.88;;;;;;;0.76;69.01;101657.58;1769630;81;21548;-59
2022/02/05 06:03:27;;;;;;;9.30;3.98;;;;;;;0.85;68.82;101661.15;1769569;81;21089;-60
2022/02/05 06:05:55;;;;;;;7.55;3.77;;;;;;;0.81;68.71;101660.23;1767083;79;21568;-60
2022/02/05 06:08:24;;;;;;;9.48;4.78;;;;;;;0.73;68.46;101662.70;1766642;81;21065;-60
2022/02/05 06:10:53;;;;;;;8.28;3.98;;;;;;;0.68;68.72;101664.37;1766669;81;21093;-60
2022/02/05 06:13:21;;;;;;;8.65;3.90;;;;;;;0.67;68.82;101661.32;1766614;81;21081;-60
2022/02/05 06:15:52;;;;;;;11.68;4.60;;;;;;;0.68;68.75;101661.78;1766637;81;21144;-60
2022/02/05 06:18:20;;;;;;;10.23;4.58;;;;;;;0.70;68.37;101675.63;1766654;81;21065;-60
2022/02/05 06:20:49;;;;;;;7.28;3.70;;;;;;;0.71;68.40;101678.66;1766545;81;21665;-60
2022/02/05 06:23:18;;;;;;;7.92;4.53;;;;;;;0.72;68.39;101678.23;1766611;81;21503;-60
2022/02/05 06:25:47;;;;;;;10.93;5.00;;;;;;;0.74;68.40;101678.72;1766676;81;21194;-60
2022/02/05 06:28:16;;;;;;;7.97;4.15;;;;;;;0.81;68.35;101682.70;1766902;81;21571;-60
2022/02/05 06:30:45;;;;;;;10.85;4.50;;;;;;;0.85;68.34;101683.19;1766868;81;21504;-60
2022/02/05 06:33:14;;;;;;;11.50;5.08;;;;;;;0.93;68.25;101683.77;1766780;81;21109;-60
2022/02/05 06:35:44;;;;;;;7.90;4.03;;;;;;;1.01;68.05;101678.70;1766902;81;21065;-60
2022/02/05 06:38:12;;;;;;;6.78;3.65;;;;;;;1.07;67.47;101678.81;1766950;81;21156;-60
2022/02/05 06:40:41;;;;;;;17.67;7.33;;;;;;;1.18;67.69;101676.38;1766866;81;21065;-60
2022/02/05 06:43:10;;;;;;;8.05;4.85;;;;;;;1.32;67.58;101671.38;1767014;81;21168;-60
2022/02/05 06:45:39;;;;;;;9.25;3.65;;;;;;;1.47;67.33;101668.97;1766995;80;21152;-60
2022/02/05 06:48:09;;;;;;;9.63;4.40;;;;;;;1.61;67.12;101668.30;1766867;81;21073;-60
2022/02/05 06:50:39;;;;;;;6.72;4.00;;;;;;;1.68;66.83;101671.43;1766990;81;21046;-60
2022/02/05 06:53:07;;;;;;;9.45;4.15;;;;;;;1.76;66.53;101672.81;1766891;81;21588;-60
2022/02/05 06:55:36;;;;;;;7.47;4.05;;;;;;;1.86;66.44;101673.35;1766898;81;21618;-61
2022/02/05 06:58:05;;;;;;;9.05;4.40;;;;;;;2.11;66.17;101665.42;1766767;81;21520;-62
2022/02/05 07:00:33;;;;;;;8.08;4.50;;;;;;;3.90;64.73;101664.94;1766881;81;21566;-61
2022/02/05 07:03:02;;;;;;;7.08;3.67;;;;;;;6.09;62.84;101664.28;1766888;81;21062;-61
2022/02/05 07:05:31;;;;;;;14.10;6.15;;;;;;;8.01;60.84;101662.88;1764581;79;21172;-61
2022/02/05 07:08:00;;;;;;;7.28;3.85;;;;;;;9.23;59.61;101666.22;1759324;81;21148;-61
2022/02/05 07:10:29;;;;;;;5.95;3.40;;;;;;;10.17;57.77;101656.40;1759407;81;21136;-62
2022/02/05 07:13:19;;;;;;;6.12;3.20;;;;;;;10.41;57.49;101651.91;1759331;81;21153;-61
2022/02/05 07:15:52;;;;;;;8.68;3.12;;;;;;;10.89;56.58;101662.59;1758435;81;21057;-61
2022/02/05 07:18:32;;;;;;;5.35;3.37;;;;;;;10.59;55.94;101659.82;1759861;80;21148;-61
2022/02/05 07:20:58;;;;;;;7.50;3.50;;;;;;;9.95;56.15;101662.59;1759275;80;21156;-61
2022/02/05 07:31:27;;;;;;;5.97;3.37;;;;;;;7.54;55.55;101663.02;1759200;81;21101;-61
2022/02/05 07:33:56;;;;;;;8.08;3.67;;;;;;;6.95;55.75;101653.19;1759318;81;21089;-61
2022/02/05 07:36:25;;;;;;;8.45;4.10;;;;;;;6.48;55.68;101651.82;1759323;81;21109;-61
2022/02/05 07:38:54;;;;;;;6.65;3.67;;;;;;;5.86;53.95;101648.67;1759166;81;21090;-61
2022/02/05 07:41:22;;;;;;;6.12;3.77;;;;;;;5.45;54.91;101648.86;1759178;81;21156;-61
2022/02/05 07:43:51;;;;;;;8.15;3.55;;;;;;;5.12;55.21;101651.98;1759036;81;21203;-62
2022/02/05 07:46:23;;;;;;;7.85;3.72;;;;;;;4.82;55.43;101646.80;1759135;81;21125;-61
2022/02/05 07:48:51;;;;;;;5.78;3.47;;;;;;;4.66;55.95;101655.94;1759137;81;21132;-61
2022/02/05 07:51:20;;;;;;;6.90;3.90;;;;;;;4.37;55.72;101654.17;1759160;81;21508;-61
2022/02/05 07:53:50;;;;;;;8.38;3.75;;;;;;;4.24;56.17;101650.67;1759161;81;21101;-61
2022/02/05 07:56:18;;;;;;;8.25;3.87;;;;;;;4.18;56.53;101655.88;1759325;81;21536;-61
2022/02/05 07:58:47;;;;;;;5.83;2.72;;;;;;;4.21;56.70;101659.38;1759150;81;21568;-61
2022/02/05 08:01:16;;;;;;;7.92;3.50;;;;;;;4.18;56.78;101654.14;1759126;81;21550;-60
2022/02/05 08:03:44;;;;;;;8.15;3.27;;;;;;;4.22;56.89;101655.91;1759235;81;21082;-60
2022/02/05 08:06:16;;;;;;;9.25;3.70;;;;;;;4.23;56.87;101651.11;1761404;79;21125;-61
2022/02/05 08:08:47;;;;;;;7.40;3.30;;;;;;;4.15;56.70;101654.56;1778349;79;21087;-64
2022/02/05 08:11:19;;;;;;;6.22;3.72;;;;;;;4.08;57.08;101655.00;1807871;78;21113;-64
2022/02/05 08:13:48;;;;;;;7.67;3.58;;;;;;;4.03;57.10;101656.72;1801484;79;21054;-62
2022/02/05 08:16:47;;;;;;;9.70;4.15;;;;;;;4.07;56.87;101651.95;1766579;81;21069;-62
2022/02/05 08:19:00;;;;;;;9.25;3.95;;;;;;;4.10;57.06;101651.97;1766319;80;21042;-61
2022/02/05 08:21:29;;;;;;;7.50;4.35;;;;;;;4.47;56.94;101659.84;1766480;81;21105;-57
2022/02/05 08:23:58;;;;;;;6.05;2.75;;;;;;;5.00;55.90;101651.14;1766759;81;21623;-57
2022/02/05 08:26:32;;;;;;;8.33;3.42;;;;;;;5.87;54.26;101649.56;1771492;80;21521;-57
2022/02/05 08:28:58;;;;;;;3.08;1.70;;;;;;;6.61;53.07;101643.89;1778455;80;21142;-62
2022/02/05 08:31:27;;;;;;;6.53;3.58;;;;;;;6.74;52.85;101643.75;1778672;80;21172;-61
2022/02/05 08:33:56;;;;;;;6.90;3.87;;;;;;;6.45;53.56;101641.37;1778469;80;21082;-62
2022/02/05 08:36:25;;;;;;;8.05;3.67;;;;;;;6.31;53.81;101636.70;1778585;80;21532;-57
2022/02/05 08:38:55;;;;;;;5.78;3.35;;;;;;;6.08;53.30;101644.68;1778573;80;21047;-57
2022/02/05 08:41:23;;;;;;;5.97;3.47;;;;;;;5.68;53.64;101642.23;1778700;80;21067;-57
2022/02/05 08:43:52;;;;;;;5.95;3.62;;;;;;;5.30;53.97;101641.50;1778555;80;21070;-57
2022/02/05 08:46:21;;;;;;;5.87;3.05;;;;;;;5.16;54.23;101641.97;1778509;80;21094;-57
2022/02/05 08:48:49;;;;;;;8.40;3.90;;;;;;;5.55;54.40;101635.77;1778719;80;21683;-61
2022/02/05 08:51:18;;;;;;;7.33;3.90;;;;;;;5.69;54.01;101630.47;1778674;80;21055;-62
2022/02/05 08:53:47;;;;;;;8.23;4.03;;;;;;;5.73;53.37;101625.65;1778550;80;21145;-61
2022/02/05 08:56:16;;;;;;;9.13;3.80;;;;;;;5.84;53.64;101628.66;1778601;80;21567;-62
2022/02/05 08:58:45;;;;;;;10.35;4.03;;;;;;;5.91;53.78;101625.14;1778669;80;21550;-63
2022/02/05 09:01:28;;;;;;;9.48;4.15;;;;;;;5.64;53.88;101620.47;1778485;80;21160;-62
2022/02/05 09:06:38;;;;;;;8.18;3.55;;;;;;;5.20;54.57;101626.72;1753699;80;21066;-62
2022/02/05 09:09:21;;;;;;;8.38;3.75;;;;;;;4.98;54.39;101625.89;1796518;80;21042;-62
2022/02/05 09:11:48;;;;;;;7.25;4.28;;;;;;;4.85;54.66;101625.07;1796026;80;21148;-58
2022/02/05 09:14:17;;;;;;;9.65;4.62;;;;;;;4.83;54.94;101627.67;1796881;79;21568;-59
2022/02/05 09:16:45;;;;;;;8.08;4.40;;;;;;;5.08;54.95;101621.55;1796788;79;21085;-58
2022/02/05 09:19:14;;;;;;;6.67;3.95;;;;;;;5.69;54.25;101614.78;1796832;80;21121;-61
2022/02/05 09:21:43;;;;;;;11.45;4.35;;;;;;;6.25;52.51;101617.11;1796878;80;21070;-63
2022/02/05 09:24:12;;;;;;;9.50;4.40;;;;;;;6.25;52.34;101615.80;1796892;80;21477;-61
2022/02/05 09:26:44;;;;;;;8.93;4.35;;;;;;;6.23;51.94;101607.95;1796849;80;21586;-61
2022/02/05 09:29:21;;;;;;;4.40;2.85;;;;;;;5.92;52.02;101613.37;1796822;79;21046;-61
2022/02/05 09:31:52;;;;;;;7.17;3.65;;;;;;;5.79;52.22;101607.34;1796792;80;21045;-61
2022/02/05 09:34:21;;;;;;;8.15;4.45;;;;;;;5.88;52.50;101606.41;1796737;80;21081;-61
2022/02/05 09:36:50;;;;;;;9.43;4.58;;;;;;;6.68;51.45;101599.77;1800582;78;21554;-61
2022/02/05 09:39:19;;;;;;;8.95;4.70;;;;;;;8.36;48.27;101598.53;1826737;78;21571;-61
2022/02/05 09:41:48;;;;;;;12.15;4.05;;;;;;;9.00;47.73;101589.13;1826924;78;21147;-61
2022/02/05 09:44:16;;;;;;;8.00;4.70;;;;;;;9.21;47.60;101590.03;1826672;78;21058;-61
2022/02/05 09:46:45;;;;;;;7.45;3.85;;;;;;;10.64;45.85;101585.95;1826566;78;21153;-62
2022/02/05 09:49:15;;;;;;;7.47;3.67;;;;;;;12.41;43.59;101582.56;1826623;78;21093;-61
2022/02/05 09:51:54;;;;;;;7.00;4.50;;;;;;;13.96;41.78;101575.63;1826732;78;21038;-61
2022/02/05 09:54:14;;;;;;;6.70;4.05;;;;;;;14.57;39.32;101573.60;1826991;77;21070;-61
2022/02/05 09:56:42;;;;;;;6.83;4.28;;;;;;;15.21;38.90;101579.17;1826693;78;21513;-61
2022/02/05 09:59:11;;;;;;;9.10;4.58;;;;;;;15.70;37.95;101573.89;1826706;78;21054;-62
2022/02/05 10:01:39;;;;;;;8.38;4.97;;;;;;;15.74;37.92;101576.34;1826634;78;21138;-61
2022/02/05 10:04:11;;;;;;;9.80;4.67;;;;;;;14.22;39.34;101574.58;1826710;78;21133;-61
2022/02/05 10:06:49;;;;;;;10.28;3.77;;;;;;;14.47;38.10;101577.52;1826816;78;21042;-61
2022/02/05 10:09:18;;;;;;;9.08;4.60;;;;;;;14.17;38.44;101573.89;1804882;78;21098;-61
2022/02/05 10:11:52;;;;;;;8.55;3.83;;;;;;;12.92;39.55;101579.05;1803500;79;21081;-62
2022/02/05 10:14:24;;;;;;;6.37;3.60;;;;;;;12.10;40.57;101575.20;1803588;79;21125;-61
2022/02/05 10:16:58;;;;;;;6.97;3.52;;;;;;;13.10;39.23;101574.42;1803557;79;21145;-61
2022/02/05 10:19:42;;;;;;;6.53;3.37;;;;;;;14.42;37.63;101570.22;1803519;79;21612;-65
2022/02/05 10:22:10;;;;;;;;;;;;;;;15.36;36.32;101568.36;1805950;79;21070;-60
2022/02/05 10:24:56;;;;;;;7.45;3.33;;;;;;;16.00;35.99;101568.92;1803543;79;20129;-60
2022/02/05 10:27:33;;;;;;;3.30;2.55;;;;;;;16.29;35.14;101574.13;1803643;79;21066;-60
2022/02/05 10:30:14;;;;;;;7.67;3.35;;;;;;;16.62;34.62;101575.15;1803715;79;21090;-60
2022/02/05 10:32:45;;;;;;;6.20;3.60;;;;;;;16.84;34.37;101582.47;1803462;79;21121;-60
2022/02/05 10:35:30;;;;;;;6.28;3.45;;;;;;;15.78;35.46;101578.39;1803659;79;21133;-60
2022/02/05 10:38:14;;;;;;;4.92;3.10;;;;;;;15.27;35.22;101578.06;1803561;79;21055;-60
2022/02/05 10:43:00;;;;;;;7.75;4.25;;;;;;;15.89;34.57;101571.23;1803714;79;21110;-60
2022/02/05 10:43:07;;;;;;;6.42;3.72;;;;;;;15.61;34.77;101576.02;1773758;79;21521;-57
2022/02/05 10:45:48;;;;;;;5.17;3.62;;;;;;;15.52;34.64;101573.80;1768180;81;21152;-58
2022/02/05 10:48:18;;;;;;;6.62;4.20;;;;;;;15.53;34.40;101573.33;1769714;81;21498;-58
2022/02/05 10:50:49;;;;;;;7.10;3.27;;;;;;;16.05;33.42;101569.56;1770878;81;21099;-59
2022/02/05 10:53:27;;;;;;;7.28;3.20;;;;;;;16.56;32.67;101570.56;1770959;81;21129;-58
2022/02/05 10:56:10;;;;;;;10.93;4.40;;;;;;;16.65;32.26;101566.55;1770883;80;21051;-58
2022/02/05 10:59:16;;;;;;;6.92;3.77;;;;;;;16.19;31.75;101560.45;1770992;80;21161;-59
2022/02/05 11:07:06;;;;;;;8.20;4.10;;;;;;;16.16;31.30;101557.94;1769531;81;21034;-59
2022/02/05 11:09:35;;;;;;;5.05;3.45;;;;;;;15.83;31.59;101557.31;1760528;79;21106;-59
2022/02/05 11:20:17;;;;;;;5.40;2.98;;;;;;;14.82;32.36;101552.17;1759097;81;21078;-60
2022/02/05 11:22:49;;;;;;;4.53;2.92;;;;;;;15.00;32.47;101551.84;1758974;81;21105;-60
2022/02/05 11:25:19;;;;;;;5.53;3.67;;;;;;;14.86;31.57;101543.19;1759271;81;21066;-60
2022/02/05 11:27:54;;;;;;;4.45;2.70;;;;;;;14.52;31.06;101549.05;1759086;81;21140;-60
2022/02/05 11:30:39;;;;;;;3.90;2.87;;;;;;;13.82;31.01;101540.43;1759069;81;21066;-60
2022/02/05 11:33:32;;;;;;;6.40;3.00;;;;;;;13.82;32.08;101545.72;1758971;81;21477;-60
2022/02/05 11:38:47;;;;;;;4.85;3.05;;;;;;;13.70;31.97;101540.91;1744168;82;21094;-60
2022/02/05 11:41:34;;;;;;;6.20;3.27;;;;;;;13.90;32.48;101537.00;1744320;81;21078;-62
2022/02/05 11:44:18;;;;;;;8.70;2.55;;;;;;;13.89;32.21;101535.77;1723093;82;21219;-58
2022/02/05 11:47:11;;;;;;;5.53;2.42;;;;;;;13.85;32.98;101531.05;1723922;82;21160;-60
2022/02/05 11:49:58;;;;;;;7.05;3.27;;;;;;;13.65;33.09;101527.88;1721793;83;21200;-61
2022/02/05 11:52:43;;;;;;;4.35;2.60;;;;;;;13.22;32.88;101535.23;1741690;81;21169;-60
2022/02/05 11:55:18;;;;;;;6.12;2.80;;;;;;;13.31;33.38;101530.95;1703711;84;21588;-59
2022/02/05 11:57:53;;;;;;;6.22;2.87;;;;;;;12.79;33.00;101536.33;1702743;84;21118;-60
2022/02/05 12:00:24;;;;;;;5.45;2.22;;;;;;;12.72;33.75;101534.36;1704125;84;21219;-60
2022/02/05 12:03:01;;;;;;;3.85;2.00;;;;;;;12.53;33.78;101532.83;1703717;84;21593;-60
2022/02/05 12:05:36;;;;;;;5.90;2.77;;;;;;;11.67;35.32;101529.46;1703876;84;21165;-60
2022/02/05 12:08:07;;;;;;;6.45;2.90;;;;;;;11.69;35.64;101533.80;1704026;83;21111;-60
2022/02/05 12:10:44;;;;;;;11.33;2.75;;;;;;;11.70;35.37;101534.19;1724919;82;21117;-58
2022/02/05 12:13:26;;;;;;;5.97;2.52;;;;;;;11.67;35.31;101537.38;1692075;85;21125;-58
2022/02/05 12:16:00;;;;;;;6.80;2.72;;;;;;;11.50;35.27;101533.48;1726576;83;21061;-61
2022/02/05 12:18:31;;;;;;;7.37;2.70;;;;;;;11.36;35.63;101536.97;1726413;83;21078;-61
2022/02/05 12:21:06;;;;;;;5.25;2.67;;;;;;;10.78;36.02;101536.41;1726306;83;21144;-62
2022/02/05 12:26:30;;;;;;;4.28;2.42;;;;;;;8.88;37.88;101552.15;1726575;83;21656;-61
2022/02/05 12:28:55;;;;;;;8.05;2.95;;;;;;;8.23;39.29;101538.83;1691761;83;21610;-61
2022/02/05 12:31:34;;;;;;;6.50;2.52;;;;;;;7.66;40.27;101539.69;1726576;82;21097;-59
2022/02/05 12:34:03;;;;;;;3.27;1.90;;;;;;;7.24;40.10;101534.58;1709595;84;21659;-58
2022/02/05 12:36:35;;;;;;;5.00;2.10;;;;;;;6.65;39.63;101529.13;1713290;83;21138;-57
2022/02/05 12:39:11;;;;;;;8.15;2.35;;;;;;;6.22;39.98;101539.55;1757670;80;21136;-58
2022/02/05 12:41:37;;;;;;;4.33;2.47;;;;;;;5.99;39.96;101527.53;1757855;81;21543;-57
2022/02/05 12:44:09;;;;;;;5.80;2.08;;;;;;;5.75;40.40;101535.04;1757360;81;21144;-57
2022/02/05 12:46:42;;;;;;;6.15;2.25;;;;;;;5.30;39.82;101542.27;1757390;81;21567;-60
2022/02/05 12:49:19;;;;;;;3.52;1.87;;;;;;;5.19;41.14;101549.28;1757600;82;21066;-63
2022/02/05 12:51:48;;;;;;;3.30;1.95;;;;;;;5.12;41.69;101552.78;1757426;81;21598;-63
2022/02/05 12:54:22;;;;;;;5.08;2.72;;;;;;;5.06;40.90;101556.73;1757304;82;21133;-64
2022/02/05 12:56:53;;;;;;;4.20;1.90;;;;;;;4.91;41.49;101556.34;1757430;82;21089;-63
2022/02/05 12:59:28;;;;;;;4.28;2.10;;;;;;;4.83;41.74;101556.33;1757423;82;21171;-64
2022/02/05 13:02:06;;;;;;;3.35;2.00;;;;;;;4.79;42.25;101552.00;1756918;82;21141;-62
2022/02/05 13:04:39;;;;;;;6.15;2.20;;;;;;;4.66;41.71;101545.93;1757437;81;21066;-62
2022/02/05 13:07:11;;;;;;;;;;;;;;;4.55;42.29;101554.21;1759987;82;21089;-62
2022/02/05 13:09:51;;;;;;;9.25;4.15;;;;;;;4.52;42.24;101556.40;1754300;82;20201;-62
2022/02/05 13:12:20;;;;;;;7.62;2.22;;;;;;;4.35;43.02;101552.91;1745873;82;21067;-62
2022/02/05 13:15:03;;;;;;;6.20;2.37;;;;;;;4.28;43.43;101553.78;1746514;82;21466;-62
2022/02/05 13:24:36;;;;;;;4.17;2.60;;;;;;;4.13;43.99;101551.63;1746511;82;21075;-62
2022/02/05 13:25:42;;;;;;;44.77;6.03;;;;;;;4.07;43.87;101556.81;1746479;82;21094;-62
2022/02/05 13:36:18;;;;;;;1.45;0.80;;;;;;;4.43;44.62;101561.63;1746360;82;21208;-64
2022/02/05 13:42:03;;;;;;;5.10;2.55;;;;;;;4.16;45.15;101562.03;1753975;79;21215;-59
2022/02/05 13:44:58;;;;;;;5.30;2.55;;;;;;;3.97;45.22;101564.20;1809013;79;21066;-58
2022/02/05 13:47:25;;;;;;;6.25;2.37;;;;;;;3.80;45.41;101568.06;1807934;79;21644;-60
2022/02/05 13:50:15;;;;;;;5.20;2.70;;;;;;;3.61;45.67;101561.50;1774463;81;21087;-64
2022/02/05 13:52:48;;;;;;;3.58;1.87;;;;;;;3.50;45.77;101564.95;1774303;81;21115;-65
2022/02/05 13:55:26;;;;;;;7.45;2.50;;;;;;;3.36;46.00;101561.88;1774449;81;21129;-64
2022/02/05 13:58:09;;;;;;;6.03;2.67;;;;;;;3.25;46.20;101565.72;1774480;81;21078;-64
2022/02/05 14:00:50;;;;;;;7.85;3.50;;;;;;;3.16;46.26;101566.98;1772617;81;21091;-64
2022/02/05 14:03:30;;;;;;;14.00;3.95;;;;;;;3.07;46.53;101572.14;1771061;81;21237;-64
2022/02/05 14:06:01;;;;;;;9.33;3.95;;;;;;;2.97;46.68;101569.94;1770847;81;21071;-63
2022/02/05 14:08:38;;;;;;;10.68;4.75;;;;;;;2.88;46.84;101576.38;1770966;81;21063;-63
2022/02/05 14:11:08;;;;;;;11.28;4.67;;;;;;;2.79;47.03;101583.69;1787178;79;21184;-63
2022/02/05 14:13:38;;;;;;;14.45;6.10;;;;;;;2.73;47.08;101585.36;1792912;80;21046;-64
2022/02/05 14:16:08;;;;;;;14.70;5.83;;;;;;;2.63;47.30;101585.30;1793127;79;21062;-63